Time;durP1;ratioP1;P1;durP2;ratioP2;P2;SDS_P1;SDS_P2;PMS_P1;PMS_P2;Temp;Humidity;BMP_temperature;BMP_pressure;BME280_temperature;BME280_humidity;BME280_pressure;Samples;Min_cycle;Max_cycle;Signal;HPM_P1;HPM_P2
2022/11/25 00:00:34;;;;;;;59.73;36.63;;;3.80;1.00;;;;;;6213548;28;20239;-54
2022/11/25 00:03:38;;;;;;;60.33;35.93;;;3.90;1.00;;;;;;6202660;28;20883;-55
2022/11/25 00:06:42;;;;;;;54.80;35.33;;;4.10;1.00;;;;;;6189598;28;20250;-66
2022/11/25 00:09:45;;;;;;;60.13;36.73;;;4.10;1.00;;;;;;6213298;28;20235;-55
2022/11/25 00:12:49;;;;;;;62.77;38.07;;;4.00;1.00;;;;;;6206305;28;20237;-55
2022/11/25 00:15:52;;;;;;;58.17;35.37;;;4.10;1.00;;;;;;6212689;28;20335;-55
2022/11/25 00:18:57;;;;;;;54.10;34.00;;;4.30;1.00;;;;;;6207506;28;20243;-54
2022/11/25 00:21:59;;;;;;;46.47;30.53;;;4.00;1.00;;;;;;6189110;28;20236;-54
2022/11/25 00:25:02;;;;;;;48.90;31.33;;;4.00;1.00;;;;;;6207518;28;20242;-54
2022/11/25 00:28:07;;;;;;;48.70;31.20;;;4.10;1.00;;;;;;6196114;28;20287;-54
2022/11/25 00:31:12;;;;;;;50.33;33.63;;;4.30;1.00;;;;;;6188344;28;20247;-55
2022/11/25 00:34:15;;;;;;;63.60;35.27;;;4.20;1.00;;;;;;6188338;28;20244;-54
2022/11/25 00:37:18;;;;;;;55.07;33.30;;;4.10;1.00;;;;;;6194159;28;20250;-55
2022/11/25 00:40:21;;;;;;;47.23;28.77;;;4.00;1.00;;;;;;6217782;28;20238;-54
2022/11/25 00:46:46;;;;;;;49.03;30.87;;;4.00;1.00;;;;;;6205824;28;20701;-54
2022/11/25 00:49:51;;;;;;;50.93;32.10;;;4.10;1.00;;;;;;6187875;28;20721;-53
2022/11/25 00:52:53;;;;;;;55.57;33.70;;;4.30;1.00;;;;;;6187690;28;20332;-54
2022/11/25 00:56:14;;;;;;;54.33;32.30;;;4.00;1.00;;;;;;6189680;28;20405;-54
2022/11/25 00:59:18;;;;;;;59.90;34.00;;;4.10;1.00;;;;;;6211422;28;20246;-54
2022/11/25 01:02:22;;;;;;;60.70;35.07;;;4.10;1.00;;;;;;6205569;28;20250;-53
2022/11/25 01:05:25;;;;;;;62.27;36.30;;;3.90;1.00;;;;;;6217015;28;20797;-55
2022/11/25 01:08:29;;;;;;;61.97;35.73;;;4.40;1.00;;;;;;6210873;28;20239;-54
2022/11/25 01:11:33;;;;;;;58.63;33.83;;;4.20;1.00;;;;;;6215343;28;20227;-54
2022/11/25 01:14:38;;;;;;;51.93;30.57;;;4.00;1.00;;;;;;6203426;28;20829;-54
2022/11/25 01:17:41;;;;;;;66.03;35.77;;;4.20;1.00;;;;;;6188983;28;20593;-54
2022/11/25 01:20:44;;;;;;;57.70;33.13;;;3.90;1.00;;;;;;6187292;28;20232;-54
2022/11/25 01:23:48;;;;;;;54.73;34.23;;;4.40;1.00;;;;;;6186426;28;20251;-55
2022/11/25 01:26:51;;;;;;;56.90;33.30;;;4.10;1.00;;;;;;6186914;28;20247;-54
2022/11/25 01:29:55;;;;;;;60.93;36.00;;;4.20;1.00;;;;;;6187094;28;20243;-54
2022/11/25 01:32:58;;;;;;;59.13;33.97;;;4.10;1.00;;;;;;6189564;28;20262;-55
2022/11/25 01:36:02;;;;;;;59.23;33.20;;;4.20;1.00;;;;;;6210306;28;20270;-54
2022/11/25 01:39:06;;;;;;;53.37;33.60;;;4.10;1.00;;;;;;6208533;28;20231;-54
2022/11/25 01:42:09;;;;;;;56.83;33.27;;;4.30;1.00;;;;;;6212754;28;20235;-54
2022/11/25 01:45:35;;;;;;;58.00;33.33;;;4.40;1.00;;;;;;6211562;28;20246;-54
2022/11/25 01:48:42;;;;;;;48.37;32.17;;;4.20;1.00;;;;;;6199439;28;20232;-55
2022/11/25 01:51:50;;;;;;;72.80;36.73;;;4.20;1.00;;;;;;6186924;28;20864;-53
2022/11/25 01:54:56;;;;;;;55.43;33.87;;;4.30;1.00;;;;;;6188371;28;20240;-54
2022/11/25 01:58:04;;;;;;;58.57;34.90;;;4.20;1.00;;;;;;6194190;28;20680;-54
2022/11/25 02:01:09;;;;;;;51.93;33.03;;;4.40;1.00;;;;;;6178780;28;20243;-61
2022/11/25 02:04:14;;;;;;;48.30;30.63;;;4.20;1.00;;;;;;6196429;28;20324;-56
2022/11/25 02:07:25;;;;;;;48.43;29.63;;;4.30;1.00;;;;;;6202994;28;20678;-54
2022/11/25 02:10:31;;;;;;;49.53;31.07;;;4.20;1.00;;;;;;6216560;28;20230;-54
2022/11/25 02:13:35;;;;;;;54.00;32.80;;;4.70;1.00;;;;;;6210846;28;20231;-55
2022/11/25 02:16:40;;;;;;;61.30;34.40;;;4.40;1.00;;;;;;6197303;28;20411;-55
2022/11/25 02:19:56;;;;;;;57.53;32.77;;;4.30;1.00;;;;;;6186006;28;20236;-54
2022/11/25 02:23:07;;;;;;;66.03;36.27;;;4.40;1.00;;;;;;6195165;28;20475;-54
2022/11/25 02:26:12;;;;;;;57.37;33.50;;;4.50;1.00;;;;;;6209620;28;20243;-53
2022/11/25 02:29:15;;;;;;;59.93;33.63;;;4.30;1.00;;;;;;6200491;28;20239;-54
2022/11/25 02:32:22;;;;;;;54.77;33.10;;;4.40;1.00;;;;;;6185997;28;20808;-55
2022/11/25 02:35:33;;;;;;;47.80;29.17;;;4.30;1.00;;;;;;6178849;28;20247;-54
2022/11/25 02:38:38;;;;;;;54.97;29.90;;;4.20;1.00;;;;;;6227109;28;20238;-54
2022/11/25 02:41:47;;;;;;;50.87;31.87;;;4.30;1.00;;;;;;6240908;28;20231;-54
2022/11/25 02:44:50;;;;;;;57.07;32.50;;;4.50;1.00;;;;;;6229836;28;20227;-53
2022/11/25 02:47:53;;;;;;;62.87;35.53;;;4.30;1.00;;;;;;6208674;28;20238;-54
2022/11/25 02:50:56;;;;;;;58.47;33.50;;;4.20;1.00;;;;;;6209783;28;20886;-54
2022/11/25 02:54:00;;;;;;;63.43;33.70;;;4.40;1.00;;;;;;6209623;28;20274;-54
2022/11/25 02:57:05;;;;;;;62.47;33.97;;;4.50;1.00;;;;;;6228879;28;20728;-53
2022/11/25 03:00:09;;;;;;;51.37;31.00;;;4.30;1.00;;;;;;6234612;28;20234;-54
2022/11/25 03:03:12;;;;;;;53.67;30.43;;;4.20;1.00;;;;;;6211014;28;20300;-54
2022/11/25 03:06:15;;;;;;;55.93;31.73;;;4.40;1.00;;;;;;6209093;28;20238;-55
2022/11/25 03:09:18;;;;;;;64.77;34.50;;;4.40;1.00;;;;;;6226302;28;20235;-53
2022/11/25 03:12:22;;;;;;;58.10;32.87;;;4.10;1.00;;;;;;6237100;28;20234;-55
2022/11/25 03:15:25;;;;;;;55.77;33.20;;;4.40;1.00;;;;;;6236995;28;20239;-54
2022/11/25 03:18:28;;;;;;;56.23;34.00;;;4.40;1.00;;;;;;6230689;28;20235;-54
2022/11/25 03:21:31;;;;;;;53.53;31.80;;;4.40;1.00;;;;;;6214320;28;20246;-54
2022/11/25 03:24:34;;;;;;;59.83;33.43;;;4.40;1.00;;;;;;6213773;28;20230;-54
2022/11/25 03:27:41;;;;;;;55.67;32.13;;;4.40;1.00;;;;;;6182419;28;20518;-54
2022/11/25 03:30:44;;;;;;;48.63;30.10;;;4.50;1.00;;;;;;6219929;28;20227;-54
2022/11/25 03:33:47;;;;;;;57.67;32.10;;;4.40;1.00;;;;;;6237626;28;20230;-54
2022/11/25 03:36:50;;;;;;;55.97;32.80;;;4.50;1.00;;;;;;6237099;28;20230;-54
2022/11/25 03:39:53;;;;;;;52.27;30.80;;;4.40;1.00;;;;;;6235914;28;20282;-53
2022/11/25 03:42:57;;;;;;;44.60;27.53;;;4.60;1.00;;;;;;6244236;28;20238;-54
2022/11/25 03:46:00;;;;;;;45.23;27.37;;;4.50;1.00;;;;;;6233530;28;20601;-56
2022/11/25 03:49:03;;;;;;;43.97;28.47;;;4.60;1.00;;;;;;6213128;28;20235;-53
2022/11/25 03:52:06;;;;;;;47.07;30.27;;;4.90;1.00;;;;;;6213363;28;20235;-53
2022/11/25 03:55:11;;;;;;;53.40;30.30;;;4.70;1.00;;;;;;6218475;28;20242;-54
2022/11/25 03:58:16;;;;;;;55.63;30.43;;;4.50;1.00;;;;;;6220571;28;20247;-54
2022/11/25 04:01:19;;;;;;;40.10;28.57;;;4.60;1.00;;;;;;6213185;28;20270;-53
2022/11/25 04:04:22;;;;;;;39.50;27.43;;;4.70;1.00;;;;;;6213576;28;20422;-54
2022/11/25 04:07:25;;;;;;;44.97;29.40;;;4.50;1.00;;;;;;6220810;28;20238;-55
2022/11/25 04:10:28;;;;;;;52.00;30.63;;;4.70;1.00;;;;;;6235071;28;20417;-54
2022/11/25 04:13:31;;;;;;;43.70;28.07;;;4.50;1.00;;;;;;6238680;28;20231;-54
2022/11/25 04:16:34;;;;;;;38.70;26.27;;;4.70;1.00;;;;;;6236973;28;20643;-53
2022/11/25 04:19:37;;;;;;;43.03;28.00;;;4.50;1.00;;;;;;6217465;28;20606;-54
2022/11/25 04:22:40;;;;;;;50.70;28.67;;;4.60;1.00;;;;;;6212343;28;20709;-54
2022/11/25 04:25:43;;;;;;;41.03;26.33;;;4.60;1.00;;;;;;6237107;28;20550;-55
2022/11/25 04:28:48;;;;;;;40.70;27.03;;;4.80;1.00;;;;;;6232581;28;20246;-54
2022/11/25 04:31:51;;;;;;;43.43;27.93;;;4.70;1.00;;;;;;6211158;28;24413;-54
2022/11/25 04:34:54;;;;;;;46.27;27.53;;;4.90;1.00;;;;;;6235575;28;20237;-54
2022/11/25 04:37:57;;;;;;;38.43;25.80;;;4.70;1.00;;;;;;6234754;28;20535;-55
2022/11/25 04:40:59;;;;;;;39.57;25.30;;;4.70;1.00;;;;;;6242002;28;20381;-54
2022/11/25 04:44:04;;;;;;;34.97;26.13;;;4.80;1.00;;;;;;6230980;28;20242;-54
2022/11/25 04:47:07;;;;;;;35.57;24.03;;;4.70;1.00;;;;;;6216996;28;20230;-55
2022/11/25 04:50:14;;;;;;;40.83;25.87;;;4.80;1.00;;;;;;6230453;28;20242;-55
2022/11/25 04:53:17;;;;;;;38.00;26.70;;;4.90;1.00;;;;;;6240273;28;20229;-55
2022/11/25 04:56:21;;;;;;;49.70;28.53;;;4.80;1.00;;;;;;6237452;28;20729;-53
2022/11/25 04:59:40;;;;;;;42.07;27.87;;;5.10;1.00;;;;;;6237897;28;20238;-55
2022/11/25 05:02:43;;;;;;;48.03;29.00;;;4.80;1.00;;;;;;6239098;28;20238;-53
2022/11/25 05:05:46;;;;;;;43.07;27.17;;;5.10;1.00;;;;;;6238103;28;20437;-54
2022/11/25 05:08:49;;;;;;;57.07;32.33;;;4.70;1.00;;;;;;6229075;28;20425;-54
2022/11/25 05:11:52;;;;;;;51.97;29.60;;;4.80;1.00;;;;;;6237532;28;20354;-55
2022/11/25 05:14:57;;;;;;;49.60;27.53;;;4.90;1.00;;;;;;6234705;28;20231;-55
2022/11/25 05:18:00;;;;;;;63.13;32.57;;;4.90;1.00;;;;;;6229688;28;20234;-55
2022/11/25 05:21:04;;;;;;;46.53;30.17;;;4.80;1.00;;;;;;6240120;28;20241;-55
2022/11/25 05:24:07;;;;;;;57.30;31.13;;;5.10;1.00;;;;;;6232611;28;20234;-54
2022/11/25 05:27:11;;;;;;;52.63;28.73;;;4.80;1.00;;;;;;6234821;28;20610;-55
2022/11/25 05:30:17;;;;;;;65.47;31.63;;;5.20;1.00;;;;;;6237790;28;20227;-57
2022/11/25 05:33:19;;;;;;;52.03;30.07;;;4.90;1.00;;;;;;6232333;28;20713;-56
2022/11/25 05:36:22;;;;;;;51.37;29.83;;;4.90;1.00;;;;;;6234622;28;20230;-54
2022/11/25 05:39:26;;;;;;;39.57;26.57;;;4.80;1.00;;;;;;6231112;28;20242;-54
2022/11/25 05:42:29;;;;;;;49.43;29.37;;;5.00;1.00;;;;;;6230614;28;20231;-55
2022/11/25 05:45:33;;;;;;;49.80;27.97;;;5.10;1.00;;;;;;6231766;28;20234;-55
2022/11/25 05:48:36;;;;;;;48.20;28.17;;;5.10;1.00;;;;;;6229923;28;20235;-54
2022/11/25 05:51:39;;;;;;;49.47;29.07;;;4.90;1.00;;;;;;6230163;28;20230;-55
2022/11/25 05:54:42;;;;;;;52.43;28.93;;;4.90;1.00;;;;;;6234770;28;20243;-55
2022/11/25 05:57:45;;;;;;;40.30;27.80;;;5.10;1.00;;;;;;6227055;28;20257;-54
2022/11/25 06:00:49;;;;;;;47.17;28.73;;;4.90;1.00;;;;;;6230230;28;20250;-54
2022/11/25 06:03:52;;;;;;;50.13;30.43;;;4.90;1.00;;;;;;6233331;28;20246;-53
2022/11/25 06:06:55;;;;;;;44.40;27.30;;;4.90;1.00;;;;;;6234173;28;20242;-54
2022/11/25 06:09:58;;;;;;;37.20;26.43;;;4.70;1.00;;;;;;6234811;28;20238;-53
2022/11/25 06:13:05;;;;;;;42.30;27.23;;;4.90;1.00;;;;;;6232863;28;20222;-53
2022/11/25 06:16:12;;;;;;;49.87;29.50;;;4.90;1.00;;;;;;6213347;28;20687;-55
2022/11/25 06:19:15;;;;;;;47.10;29.23;;;4.90;1.00;;;;;;6232517;28;20817;-54
2022/11/25 06:22:18;;;;;;;42.47;28.03;;;4.60;1.00;;;;;;6230667;28;20724;-54
2022/11/25 06:25:21;;;;;;;49.30;28.87;;;4.80;1.00;;;;;;6233721;28;20237;-54
2022/11/25 06:28:24;;;;;;;44.13;28.80;;;4.70;1.00;;;;;;6231683;28;20246;-54
2022/11/25 06:31:28;;;;;;;44.37;27.57;;;4.70;1.00;;;;;;6229052;28;20231;-54
2022/11/25 06:34:32;;;;;;;34.93;25.00;;;4.70;1.00;;;;;;6233894;28;20242;-54
2022/11/25 06:37:36;;;;;;;41.30;25.63;;;4.50;1.00;;;;;;6233148;28;20477;-55
2022/11/25 06:40:39;;;;;;;38.93;25.67;;;4.40;1.00;;;;;;6242360;28;20947;-53
2022/11/25 06:43:42;;;;;;;39.97;26.70;;;4.50;1.00;;;;;;6229614;28;20756;-54
2022/11/25 06:46:46;;;;;;;39.57;25.83;;;4.50;1.00;;;;;;6239391;28;20249;-53
2022/11/25 06:49:50;;;;;;;36.93;24.60;;;4.60;1.00;;;;;;6239063;28;20239;-53
2022/11/25 06:52:53;;;;;;;45.17;26.97;;;4.50;1.00;;;;;;6232382;28;20241;-53
2022/11/25 06:56:07;;;;;;;41.97;26.43;;;4.40;1.00;;;;;;6242945;28;20246;-55
2022/11/25 06:59:10;;;;;;;48.83;28.27;;;4.50;1.00;;;;;;6234452;28;20230;-52
2022/11/25 07:02:14;;;;;;;47.97;25.87;;;4.20;1.00;;;;;;6231644;28;20409;-53
2022/11/25 07:05:17;;;;;;;41.77;26.73;;;4.40;1.00;;;;;;6229297;28;20325;-53
2022/11/25 07:08:23;;;;;;;47.87;29.33;;;4.30;1.00;;;;;;6234099;28;20239;-54
2022/11/25 07:11:30;;;;;;;71.67;31.43;;;4.20;1.00;;;;;;6237297;28;20266;-53
2022/11/25 07:14:33;;;;;;;56.87;30.80;;;4.40;1.00;;;;;;6231400;28;20238;-54
2022/11/25 07:17:38;;;;;;;57.23;31.90;;;4.40;1.00;;;;;;6232731;28;20717;-55
2022/11/25 07:20:41;;;;;;;73.33;32.17;;;4.50;1.00;;;;;;6229286;28;20238;-53
2022/11/25 07:23:45;;;;;;;81.40;33.37;;;4.30;1.00;;;;;;6226511;28;20672;-53
2022/11/25 07:26:48;;;;;;;82.70;33.83;;;4.30;1.00;;;;;;6232052;28;20259;-53
2022/11/25 07:29:51;;;;;;;61.53;32.40;;;4.30;1.00;;;;;;6237124;28;20321;-55
2022/11/25 07:33:16;;;;;;;88.30;34.73;;;4.30;1.00;;;;;;6223977;28;20242;-53
2022/11/25 07:36:19;;;;;;;85.30;33.63;;;4.40;1.00;;;;;;6237334;28;20297;-54
2022/11/25 07:39:23;;;;;;;63.70;32.50;;;4.40;1.00;;;;;;6234186;28;20239;-54
2022/11/25 07:42:26;;;;;;;107.77;34.53;;;4.60;1.00;;;;;;6233762;28;20228;-56
2022/11/25 07:45:29;;;;;;;59.87;31.83;;;4.40;1.00;;;;;;6231012;28;20238;-54
2022/11/25 07:48:33;;;;;;;49.13;28.67;;;4.60;1.00;;;;;;6233368;28;20253;-54
2022/11/25 07:51:38;;;;;;;93.20;32.93;;;4.40;1.00;;;;;;6232991;28;20235;-53
2022/11/25 07:54:41;;;;;;;56.27;30.37;;;4.40;1.00;;;;;;6230047;28;20238;-54
2022/11/25 07:57:44;;;;;;;53.97;30.13;;;4.50;1.00;;;;;;6232603;28;20671;-53
2022/11/25 08:00:47;;;;;;;58.03;32.77;;;4.60;1.00;;;;;;6237620;28;20245;-54
2022/11/25 08:03:52;;;;;;;84.20;36.27;;;4.80;1.00;;;;;;6231008;28;20234;-53
2022/11/25 08:06:55;;;;;;;130.00;38.73;;;4.70;1.00;;;;;;6227001;28;20285;-54
2022/11/25 08:09:58;;;;;;;81.17;33.80;;;4.70;1.00;;;;;;6239356;28;20235;-53
2022/11/25 08:13:02;;;;;;;46.03;29.43;;;4.80;1.00;;;;;;6244240;28;20235;-54
2022/11/25 08:16:06;;;;;;;128.80;35.10;;;4.60;1.00;;;;;;6237815;28;20231;-53
2022/11/25 08:19:14;;;;;;;92.67;31.50;;;4.80;1.00;;;;;;6233806;28;20268;-53
2022/11/25 08:22:17;;;;;;;58.50;28.23;;;4.80;1.00;;;;;;6238368;28;20600;-53
2022/11/25 08:25:20;;;;;;;50.83;27.63;;;5.10;1.00;;;;;;6237300;28;20231;-52
2022/11/25 08:28:23;;;;;;;57.53;29.50;;;5.00;1.00;;;;;;6229383;28;20242;-55
2022/11/25 08:31:28;;;;;;;53.27;29.30;;;4.80;1.00;;;;;;6237170;28;20230;-55
2022/11/25 08:34:33;;;;;;;48.47;26.83;;;5.20;1.00;;;;;;6235650;28;20238;-54
2022/11/25 08:37:36;;;;;;;84.27;30.73;;;4.90;1.00;;;;;;6233638;28;20254;-54
2022/11/25 08:40:43;;;;;;;53.13;29.50;;;4.90;1.00;;;;;;6238613;28;20246;-53
2022/11/25 08:43:46;;;;;;;48.93;29.30;;;5.00;1.00;;;;;;6229470;28;20238;-54
2022/11/25 08:46:49;;;;;;;61.53;30.23;;;4.90;1.00;;;;;;6231800;28;20306;-54
2022/11/25 08:49:54;;;;;;;56.47;29.87;;;5.20;1.00;;;;;;6231694;28;20733;-54
2022/11/25 08:52:58;;;;;;;51.07;29.80;;;5.10;1.00;;;;;;6236416;28;20429;-50
2022/11/25 08:56:01;;;;;;;54.43;30.10;;;5.20;1.00;;;;;;6235326;28;20370;-56
2022/11/25 08:59:05;;;;;;;53.37;30.43;;;5.30;1.00;;;;;;6224845;28;20733;-53
2022/11/25 09:02:09;;;;;;;49.93;29.20;;;5.20;1.00;;;;;;6213912;28;20231;-53
2022/11/25 09:05:15;;;;;;;52.87;31.77;;;5.20;1.00;;;;;;6215040;28;20259;-55
2022/11/25 09:08:19;;;;;;;58.13;31.27;;;5.20;1.00;;;;;;6211325;28;20231;-54
2022/11/25 09:11:22;;;;;;;50.80;29.33;;;5.50;1.00;;;;;;6216196;28;20223;-53
2022/11/25 09:14:25;;;;;;;49.67;30.03;;;5.00;1.00;;;;;;6212559;28;20238;-55
2022/11/25 09:17:28;;;;;;;45.20;28.97;;;5.30;1.00;;;;;;6213155;28;20236;-54
2022/11/25 09:20:33;;;;;;;56.50;31.70;;;5.40;1.00;;;;;;6214279;28;20243;-53
2022/11/25 09:23:37;;;;;;;51.03;30.10;;;5.70;1.00;;;;;;6211503;28;20487;-53
2022/11/25 09:26:41;;;;;;;46.03;27.93;;;5.80;1.00;;;;;;6210206;28;20246;-54
2022/11/25 09:29:44;;;;;;;46.37;29.43;;;5.60;1.00;;;;;;6211818;28;20501;-54
2022/11/25 09:32:49;;;;;;;52.43;29.57;;;5.60;1.00;;;;;;6211632;28;20250;-54
2022/11/25 09:35:54;;;;;;;57.63;30.40;;;5.60;1.00;;;;;;6211006;28;20250;-54
2022/11/25 09:38:57;;;;;;;57.33;30.90;;;5.60;1.00;;;;;;6206239;28;20247;-54
2022/11/25 09:49:20;;;;;;;44.27;29.00;;;5.80;1.00;;;;;;6235768;28;20227;-54
2022/11/25 09:52:35;;;;;;;43.10;27.13;;;5.90;1.00;;;;;;6229362;28;20685;-54
2022/11/25 09:55:43;;;;;;;46.17;28.50;;;5.90;1.00;;;;;;6233968;28;20242;-53
2022/11/25 09:58:51;;;;;;;38.93;26.67;;;6.00;1.00;;;;;;6210900;28;20262;-53
2022/11/25 10:01:58;;;;;;;43.83;26.70;;;6.00;1.00;;;;;;6217447;28;20240;-54
2022/11/25 10:05:07;;;;;;;35.00;26.07;;;6.00;1.00;;;;;;6235416;28;20311;-54
2022/11/25 10:08:14;;;;;;;42.57;27.60;;;6.00;1.00;;;;;;6234044;28;20250;-54
2022/11/25 10:11:28;;;;;;;40.40;27.40;;;6.10;1.00;;;;;;6238424;28;20827;-53
2022/11/25 10:14:35;;;;;;;39.93;27.27;;;6.30;1.00;;;;;;6216855;28;20717;-55
2022/11/25 10:17:43;;;;;;;43.67;28.80;;;6.40;1.00;;;;;;6219012;28;20249;-55
2022/11/25 10:20:47;;;;;;;40.57;26.10;;;6.40;1.00;;;;;;6210185;28;20745;-53
2022/11/25 10:23:52;;;;;;;44.27;27.67;;;6.40;1.00;;;;;;6225094;28;20235;-54
2022/11/25 10:27:00;;;;;;;43.20;29.20;;;6.40;1.00;;;;;;6237200;28;20249;-55
2022/11/25 10:30:13;;;;;;;45.90;29.97;;;6.40;1.00;;;;;;6234764;28;21681;-54
2022/11/25 10:33:20;;;;;;;46.87;29.27;;;6.30;1.00;;;;;;6226430;28;20606;-54
2022/11/25 10:36:27;;;;;;;49.23;29.30;;;6.30;1.00;;;;;;6227855;28;20239;-55
2022/11/25 10:39:34;;;;;;;49.63;31.50;;;6.30;1.00;;;;;;6240906;28;20542;-54
2022/11/25 10:42:37;;;;;;;50.20;32.47;;;6.40;1.00;;;;;;6241492;28;20731;-54
2022/11/25 10:45:47;;;;;;;52.33;30.67;;;6.70;1.00;;;;;;6233033;28;20697;-55
2022/11/25 10:48:59;;;;;;;44.83;30.13;;;6.50;1.00;;;;;;6222394;28;20276;-54
2022/11/25 10:52:07;;;;;;;50.37;30.07;;;6.50;1.00;;;;;;6233496;28;20239;-56
2022/11/25 10:55:15;;;;;;;47.63;29.87;;;6.50;1.00;;;;;;6230470;28;20755;-55
2022/11/25 10:58:25;;;;;;;47.27;29.00;;;6.50;1.00;;;;;;6235822;28;20242;-54
2022/11/25 11:01:28;;;;;;;50.90;31.57;;;6.50;1.00;;;;;;6235746;28;20242;-55
2022/11/25 11:04:51;;;;;;;56.67;32.80;;;6.50;1.00;;;;;;6223440;28;20230;-54
2022/11/25 11:08:17;;;;;;;55.63;32.33;;;6.50;1.00;;;;;;6230732;28;20620;-53
2022/11/25 11:11:23;;;;;;;50.33;32.07;;;6.60;1.00;;;;;;6217218;28;20229;-54
2022/11/25 11:14:28;;;;;;;52.90;32.40;;;6.60;1.00;;;;;;6214195;28;20353;-54
2022/11/25 11:17:34;;;;;;;54.93;34.33;;;6.70;1.00;;;;;;6211632;28;20373;-54
2022/11/25 11:20:46;;;;;;;53.63;33.10;;;6.80;1.00;;;;;;6217088;28;21336;-54
2022/11/25 11:23:50;;;;;;;54.37;33.57;;;6.80;1.00;;;;;;6212189;28;20577;-53
2022/11/25 11:27:05;;;;;;;52.60;33.23;;;6.90;1.00;;;;;;6214612;28;20247;-54
2022/11/25 11:30:14;;;;;;;47.50;32.73;;;7.00;1.00;;;;;;6208224;28;20741;-56
2022/11/25 11:33:32;;;;;;;48.07;31.00;;;7.00;1.00;;;;;;6237423;28;20237;-54
2022/11/25 11:36:45;;;;;;;41.73;30.47;;;7.00;1.00;;;;;;6222760;28;20900;-53
2022/11/25 11:39:59;;;;;;;45.53;30.27;;;7.20;1.00;;;;;;6213708;28;20257;-54
2022/11/25 11:43:37;;;;;;;45.23;31.37;;;7.20;1.00;;;;;;6239401;28;20238;-54
2022/11/25 11:47:05;;;;;;;42.87;29.50;;;7.20;1.00;;;;;;6237928;28;20628;-56
2022/11/25 11:50:27;;;;;;;42.07;28.53;;;7.20;1.00;;;;;;6232246;28;20752;-54
2022/11/25 11:53:35;;;;;;;42.67;29.80;;;7.40;1.00;;;;;;6225924;28;20239;-53
2022/11/25 11:56:41;;;;;;;39.67;28.63;;;7.50;1.00;;;;;;6209556;28;20231;-55
2022/11/25 11:59:52;;;;;;;43.60;29.80;;;7.70;1.00;;;;;;6222354;28;20266;-54
2022/11/25 12:03:00;;;;;;;35.90;26.50;;;7.80;1.00;;;;;;6221392;28;20249;-55
2022/11/25 12:06:05;;;;;;;34.17;26.10;;;7.90;1.00;;;;;;6229552;28;20330;-54
2022/11/25 12:09:15;;;;;;;35.33;25.70;;;7.70;1.00;;;;;;6234671;28;20245;-57
2022/11/25 12:12:22;;;;;;;34.30;25.70;;;7.90;1.00;;;;;;6230246;28;20234;-53
2022/11/25 12:15:37;;;;;;;35.97;26.00;;;7.80;1.00;;;;;;6241897;28;20235;-52
2022/11/25 12:18:47;;;;;;;32.53;24.67;;;7.80;1.00;;;;;;6244820;28;20257;-55
2022/11/25 12:21:56;;;;;;;34.87;26.67;;;7.60;1.00;;;;;;6231455;28;20243;-55
2022/11/25 12:25:07;;;;;;;36.70;26.80;;;7.50;1.00;;;;;;6242489;28;20242;-58
2022/11/25 12:28:15;;;;;;;37.57;26.93;;;7.40;1.00;;;;;;6241868;28;20231;-54
2022/11/25 12:31:26;;;;;;;39.50;27.43;;;7.40;1.00;;;;;;6248451;28;20234;-53
2022/11/25 12:34:37;;;;;;;35.67;28.47;;;7.40;1.00;;;;;;6237607;28;20333;-55
2022/11/25 12:37:46;;;;;;;40.20;27.37;;;7.40;1.00;;;;;;6219429;28;20339;-56
2022/11/25 12:40:59;;;;;;;39.67;29.00;;;7.20;1.00;;;;;;6211972;28;20247;-55
2022/11/25 12:44:07;;;;;;;43.63;30.33;;;7.20;1.00;;;;;;6223669;28;20239;-54
2022/11/25 12:47:11;;;;;;;45.53;30.17;;;7.10;1.00;;;;;;6222827;28;20234;-54
2022/11/25 12:50:17;;;;;;;42.87;29.40;;;7.00;1.00;;;;;;6214502;28;20227;-53
2022/11/25 12:53:30;;;;;;;44.97;30.40;;;6.90;1.00;;;;;;6215141;28;20242;-54
2022/11/25 12:56:51;;;;;;;51.10;32.07;;;6.90;1.00;;;;;;6215154;28;20250;-53
2022/11/25 13:00:12;;;;;;;42.87;30.40;;;6.80;1.00;;;;;;6233585;28;20239;-54
2022/11/25 13:04:05;;;;;;;44.90;29.77;;;6.80;1.00;;;;;;6228990;28;20347;-54
2022/11/25 13:07:25;;;;;;;38.63;26.80;;;6.80;1.00;;;;;;6209779;28;20286;-54
2022/11/25 13:10:42;;;;;;;37.60;26.27;;;6.80;1.00;;;;;;6231506;28;20235;-54
2022/11/25 13:13:54;;;;;;;33.57;25.53;;;6.70;1.00;;;;;;6243001;28;20245;-56
2022/11/25 13:16:58;;;;;;;39.17;26.00;;;6.70;1.00;;;;;;6236079;28;20334;-54
2022/11/25 13:20:41;;;;;;;34.57;24.73;;;6.60;1.00;;;;;;6235760;28;20313;-53
2022/11/25 13:23:51;;;;;;;33.13;24.90;;;6.60;1.00;;;;;;6226255;28;20231;-54
2022/11/25 13:26:54;;;;;;;38.53;24.77;;;6.60;1.00;;;;;;6243260;28;20759;-54
2022/11/25 13:29:58;;;;;;;33.60;24.33;;;6.70;1.00;;;;;;6235229;28;20429;-55
2022/11/25 13:33:40;;;;;;;37.43;24.77;;;6.60;1.00;;;;;;6233169;28;20238;-53
2022/11/25 13:36:46;;;;;;;36.67;26.60;;;6.50;1.00;;;;;;6230987;28;20594;-54
2022/11/25 13:40:20;;;;;;;36.80;24.53;;;6.50;1.00;;;;;;6235874;28;20241;-53
2022/11/25 13:43:23;;;;;;;32.97;24.13;;;6.50;1.00;;;;;;6234792;28;20261;-53
2022/11/25 13:46:39;;;;;;;36.77;24.63;;;6.50;1.00;;;;;;6239778;28;20238;-54
2022/11/25 13:49:52;;;;;;;35.83;24.30;;;6.50;1.00;;;;;;6237992;28;20230;-56
2022/11/25 13:52:59;;;;;;;35.00;23.57;;;6.40;1.00;;;;;;6232635;28;20228;-53
2022/11/25 13:56:15;;;;;;;39.87;25.13;;;6.40;1.00;;;;;;6231753;28;20242;-54
2022/11/25 13:59:38;;;;;;;35.90;24.67;;;6.40;1.00;;;;;;6229280;28;20276;-54
2022/11/25 14:02:44;;;;;;;39.00;25.40;;;6.50;1.00;;;;;;6236187;28;20238;-54
2022/11/25 14:05:59;;;;;;;30.00;22.00;;;6.60;1.00;;;;;;6237053;28;20261;-54
2022/11/25 14:09:05;;;;;;;34.63;22.57;;;6.50;1.00;;;;;;6231142;28;20242;-55
2022/11/25 14:12:33;;;;;;;32.37;21.47;;;6.50;1.00;;;;;;6240645;28;20373;-53
2022/11/25 14:15:50;;;;;;;33.37;22.77;;;6.60;1.00;;;;;;6206164;28;20236;-54
2022/11/25 14:19:16;;;;;;;30.80;22.53;;;6.70;1.00;;;;;;6212160;28;20239;-53
2022/11/25 14:23:06;;;;;;;37.10;24.77;;;6.50;1.00;;;;;;6215223;28;20239;-54
2022/11/25 14:26:11;;;;;;;36.63;25.73;;;6.60;1.00;;;;;;6216542;28;20717;-54
2022/11/25 14:29:41;;;;;;;40.47;24.73;;;6.50;1.00;;;;;;6214886;28;20500;-54
2022/11/25 14:32:52;;;;;;;35.37;25.37;;;6.40;1.00;;;;;;6213920;28;20235;-53
2022/11/25 14:36:01;;;;;;;44.33;27.43;;;6.40;1.00;;;;;;6236310;28;20230;-53
2022/11/25 14:39:08;;;;;;;37.03;25.73;;;6.40;1.00;;;;;;6236412;28;20239;-55
2022/11/25 14:42:16;;;;;;;38.20;24.87;;;6.40;1.00;;;;;;6245811;28;20230;-52
2022/11/25 14:45:26;;;;;;;37.60;24.00;;;6.40;1.00;;;;;;6243369;28;20230;-54
2022/11/25 14:48:29;;;;;;;41.10;26.83;;;6.40;1.00;;;;;;6237371;28;20243;-54
2022/11/25 14:51:35;;;;;;;50.37;28.37;;;6.40;1.00;;;;;;6240403;28;20241;-54
2022/11/25 14:54:41;;;;;;;44.10;26.83;;;6.40;1.00;;;;;;6240731;28;20496;-53
2022/11/25 14:57:45;;;;;;;36.53;23.87;;;6.40;1.00;;;;;;6233272;28;20511;-54
2022/11/25 15:01:00;;;;;;;44.80;26.87;;;6.30;1.00;;;;;;6233232;28;20249;-53
2022/11/25 15:04:06;;;;;;;36.90;25.10;;;6.30;1.00;;;;;;6226712;28;20246;-55
2022/11/25 15:07:18;;;;;;;39.03;27.00;;;6.30;1.00;;;;;;6237808;28;20249;-52
2022/11/25 15:10:39;;;;;;;37.67;25.57;;;6.30;1.00;;;;;;6224696;28;20234;-53
2022/11/25 15:13:44;;;;;;;38.57;25.27;;;6.30;1.00;;;;;;6218704;28;20600;-58
2022/11/25 15:16:49;;;;;;;49.80;28.70;;;6.30;1.00;;;;;;6217514;28;20635;-54
2022/11/25 15:19:53;;;;;;;35.70;25.10;;;6.30;1.00;;;;;;6211731;28;20245;-56
2022/11/25 15:22:56;;;;;;;38.37;26.17;;;6.30;1.00;;;;;;6206112;28;20375;-54
2022/11/25 15:26:00;;;;;;;37.10;24.63;;;6.30;1.00;;;;;;6214449;28;20708;-54
2022/11/25 15:29:10;;;;;;;36.33;24.77;;;6.30;1.00;;;;;;6224039;28;20688;-53
2022/11/25 15:32:19;;;;;;;40.10;26.97;;;6.30;1.00;;;;;;6208205;28;20230;-54
2022/11/25 15:35:24;;;;;;;35.33;24.10;;;6.40;1.00;;;;;;6207469;28;20748;-53
2022/11/25 15:38:40;;;;;;;33.07;23.07;;;6.30;1.00;;;;;;6213047;28;20235;-54
2022/11/25 15:41:46;;;;;;;37.83;25.57;;;6.30;1.00;;;;;;6215175;28;20606;-54
2022/11/25 15:44:53;;;;;;;37.67;28.83;;;6.20;1.00;;;;;;6215674;28;20235;-54
2022/11/25 15:47:57;;;;;;;34.87;25.47;;;6.20;1.00;;;;;;6224713;28;20238;-54
2022/11/25 15:51:03;;;;;;;38.17;24.73;;;6.30;1.00;;;;;;6232888;28;20238;-53
2022/11/25 15:54:15;;;;;;;43.23;28.73;;;6.30;1.00;;;;;;6232444;28;20632;-54
2022/11/25 15:57:21;;;;;;;40.93;27.53;;;6.20;1.00;;;;;;6230252;28;20269;-56
2022/11/25 16:00:24;;;;;;;37.83;25.70;;;6.20;1.00;;;;;;6233152;28;20653;-54
2022/11/25 16:03:31;;;;;;;40.17;27.10;;;6.20;1.00;;;;;;6239090;28;20756;-53
2022/11/25 16:06:34;;;;;;;43.97;27.57;;;6.30;1.00;;;;;;6234956;28;20245;-55
2022/11/25 16:09:37;;;;;;;54.27;30.30;;;6.20;1.00;;;;;;6234725;28;20234;-54
2022/11/25 16:12:40;;;;;;;39.50;26.43;;;6.20;1.00;;;;;;6231889;28;20230;-54
2022/11/25 16:15:46;;;;;;;40.47;26.63;;;6.20;1.00;;;;;;6237523;28;20246;-55
2022/11/25 16:19:20;;;;;;;40.97;26.37;;;6.20;1.00;;;;;;6228277;28;20243;-55
2022/11/25 16:22:23;;;;;;;43.63;27.27;;;6.20;1.00;;;;;;6245716;28;20279;-54